createdAt,value
2019-03-28T00:01:07.630Z,85.13
2019-03-28T00:03:37.382Z,78.27
2019-03-28T00:06:07.267Z,77.33
2019-03-28T00:08:37.150Z,73.80
2019-03-28T00:11:06.941Z,79.10
2019-03-28T00:13:36.753Z,77.53
2019-03-28T00:16:06.760Z,71.70
2019-03-28T00:18:36.546Z,69.20
2019-03-28T00:21:06.351Z,76.27
2019-03-28T00:23:58.246Z,71.30
2019-03-28T00:26:30.514Z,75.90
2019-03-28T00:28:59.602Z,77.93
2019-03-28T00:31:29.450Z,71.53
2019-03-28T00:33:59.234Z,67.33
2019-03-28T00:36:29.056Z,67.67
2019-03-28T00:38:58.865Z,70.40
2019-03-28T00:41:28.665Z,65.67
2019-03-28T00:43:58.445Z,64.53
2019-03-28T00:46:28.306Z,64.93
2019-03-28T00:48:58.105Z,64.13
2019-03-28T00:51:27.909Z,59.03
2019-03-28T00:53:57.727Z,54.43
2019-03-28T00:56:27.661Z,63.77
2019-03-28T00:58:57.523Z,54.70
2019-03-28T01:01:27.346Z,59.80
2019-03-28T01:03:57.129Z,57.50
2019-03-28T01:06:26.933Z,52.93
2019-03-28T01:08:56.711Z,59.00
2019-03-28T01:11:26.505Z,50.67
2019-03-28T01:13:56.237Z,45.33
2019-03-28T01:16:26.325Z,49.80
2019-03-28T01:18:56.241Z,49.57
2019-03-28T01:21:26.042Z,54.10
2019-03-28T01:23:55.911Z,53.53
2019-03-28T01:26:25.717Z,48.17
2019-03-28T01:28:55.530Z,50.13
2019-03-28T01:31:25.350Z,56.47
2019-03-28T01:33:55.138Z,53.10
2019-03-28T01:36:24.967Z,53.17
2019-03-28T01:38:54.755Z,55.00
2019-03-28T01:41:24.558Z,58.60
2019-03-28T01:43:54.442Z,57.80
2019-03-28T01:46:25.121Z,52.23
2019-03-28T01:48:55.090Z,54.23
2019-03-28T01:51:24.887Z,54.80
2019-03-28T01:53:54.676Z,56.63
2019-03-28T01:56:25.163Z,51.67
2019-03-28T01:58:55.231Z,58.53
2019-03-28T02:01:25.277Z,54.43
2019-03-28T02:03:55.079Z,55.03
2019-03-28T02:06:24.982Z,53.63
2019-03-28T02:08:54.876Z,54.13
2019-03-28T02:11:24.665Z,55.47
2019-03-28T02:13:54.459Z,60.10
2019-03-28T02:16:24.353Z,57.37
2019-03-28T02:18:54.210Z,58.33
2019-03-28T02:21:24.270Z,58.70
2019-03-28T02:23:54.086Z,57.67
2019-03-28T02:26:23.885Z,52.07
2019-03-28T02:28:53.706Z,48.50
2019-03-28T02:31:23.527Z,46.53
2019-03-28T02:33:53.448Z,49.33
2019-03-28T02:36:23.309Z,48.63
2019-03-28T02:38:53.133Z,49.70
2019-03-28T02:41:22.946Z,50.77
2019-03-28T02:43:52.734Z,46.67
2019-03-28T02:46:22.912Z,51.33
2019-03-28T02:48:53.757Z,47.57
2019-03-28T02:51:23.895Z,56.90
2019-03-28T02:53:53.746Z,51.43
2019-03-28T02:56:23.642Z,59.10
2019-03-28T02:58:53.556Z,58.87
2019-03-28T03:01:23.402Z,52.83
2019-03-28T03:03:53.338Z,53.43
2019-03-28T03:06:23.208Z,58.60
2019-03-28T03:08:52.986Z,57.10
2019-03-28T03:11:22.798Z,55.40
2019-03-28T03:13:52.730Z,56.17
2019-03-28T03:16:22.800Z,62.63
2019-03-28T03:18:52.938Z,56.03
2019-03-28T03:21:22.814Z,59.57
2019-03-28T03:23:52.689Z,66.10
2019-03-28T03:26:22.442Z,61.63
2019-03-28T03:28:52.277Z,62.90
2019-03-28T03:31:22.489Z,61.37
2019-03-28T03:33:53.082Z,65.20
2019-03-28T03:36:22.870Z,60.07
2019-03-28T03:38:52.767Z,71.93
2019-03-28T03:41:22.686Z,62.90
2019-03-28T03:43:52.495Z,64.67
2019-03-28T03:46:22.308Z,62.63
2019-03-28T03:48:52.223Z,59.07
2019-03-28T03:51:22.046Z,61.90
2019-03-28T03:53:51.840Z,58.50
2019-03-28T03:56:21.626Z,57.93
2019-03-28T03:58:51.422Z,58.20
2019-03-28T04:01:21.220Z,53.87
2019-03-28T04:03:51.120Z,59.77
2019-03-28T04:06:20.920Z,58.47
2019-03-28T04:08:50.809Z,58.10
2019-03-28T04:11:20.687Z,53.43
2019-03-28T04:13:50.553Z,57.47
2019-03-28T04:16:20.422Z,62.37
2019-03-28T04:18:50.209Z,64.97
2019-03-28T04:21:20.037Z,57.33
2019-03-28T04:23:49.965Z,53.60
2019-03-28T04:26:19.767Z,54.17
2019-03-28T04:28:49.611Z,57.50
2019-03-28T04:31:19.449Z,60.87
2019-03-28T04:33:49.321Z,59.47
2019-03-28T04:36:19.145Z,58.77
2019-03-28T04:38:48.947Z,57.80
2019-03-28T04:41:18.780Z,61.93
2019-03-28T04:43:48.594Z,64.83
2019-03-28T04:46:18.502Z,58.97
2019-03-28T04:48:50.663Z,62.60
2019-03-28T04:51:19.877Z,58.00
2019-03-28T04:53:49.690Z,62.53
2019-03-28T04:56:19.503Z,59.10
2019-03-28T04:58:49.416Z,58.13
2019-03-28T05:01:19.409Z,65.67
2019-03-28T05:03:49.453Z,64.63
2019-03-28T05:06:19.453Z,68.20
2019-03-28T05:08:49.281Z,72.03
2019-03-28T05:11:19.191Z,65.90
2019-03-28T05:13:49.150Z,64.90
2019-03-28T05:16:18.962Z,67.17
2019-03-28T05:18:48.748Z,65.57
2019-03-28T05:21:18.585Z,63.47
2019-03-28T05:23:48.422Z,61.93
2019-03-28T05:26:18.236Z,61.83
2019-03-28T05:28:57.319Z,62.87
2019-03-28T05:31:19.747Z,60.10
2019-03-28T05:33:49.634Z,61.57
2019-03-28T05:36:19.667Z,62.40
2019-03-28T05:38:49.516Z,59.13
2019-03-28T05:41:20.909Z,58.53
2019-03-28T05:43:51.821Z,57.80
2019-03-28T05:46:21.633Z,60.50
2019-03-28T05:48:52.581Z,57.00
2019-03-28T05:51:22.478Z,55.53
2019-03-28T05:53:52.341Z,61.20
2019-03-28T05:56:22.332Z,55.67
2019-03-28T05:58:52.253Z,62.63
2019-03-28T06:01:22.433Z,57.10
2019-03-28T06:03:52.316Z,56.70
2019-03-28T06:06:22.137Z,59.70
2019-03-28T06:08:51.945Z,63.37
2019-03-28T06:11:21.803Z,57.60
2019-03-28T06:13:51.615Z,55.67
2019-03-28T06:16:21.502Z,53.63
2019-03-28T06:18:51.385Z,58.70
2019-03-28T06:21:21.469Z,51.43
2019-03-28T06:23:51.486Z,61.67
2019-03-28T06:26:21.319Z,56.87
2019-03-28T06:28:51.457Z,55.40
2019-03-28T06:31:21.592Z,57.00
2019-03-28T06:33:51.455Z,62.57
2019-03-28T06:36:21.313Z,59.53
2019-03-28T06:38:51.170Z,64.20
2019-03-28T06:41:20.962Z,61.77
2019-03-28T06:43:50.753Z,59.50
2019-03-28T06:46:20.598Z,65.23
2019-03-28T06:48:50.418Z,55.33
2019-03-28T06:51:20.419Z,67.67
2019-03-28T06:53:50.258Z,56.67
2019-03-28T06:56:20.081Z,57.20
2019-03-28T06:58:49.930Z,67.73
2019-03-28T07:01:19.847Z,64.53
2019-03-28T07:03:49.646Z,68.97
2019-03-28T07:06:19.447Z,68.87
2019-03-28T07:08:49.302Z,70.50
2019-03-28T07:11:19.177Z,72.67
2019-03-28T07:13:48.997Z,69.77
2019-03-28T07:16:24.329Z,84.60
2019-03-28T07:18:54.150Z,80.23
2019-03-28T07:21:26.785Z,71.73
2019-03-28T07:23:58.814Z,69.10
2019-03-28T07:26:28.650Z,69.70
2019-03-28T07:28:59.387Z,71.73
2019-03-28T07:31:29.641Z,65.23
2019-03-28T07:33:59.483Z,68.57
2019-03-28T07:36:29.381Z,70.30
2019-03-28T07:39:01.723Z,80.70
2019-03-28T07:41:31.674Z,73.07
2019-03-28T07:44:02.197Z,71.37
2019-03-28T07:46:32.030Z,81.07
2019-03-28T07:49:02.913Z,80.77
2019-03-28T07:51:32.975Z,87.20
2019-03-28T07:54:03.402Z,92.40
2019-03-28T07:56:33.332Z,84.77
2019-03-28T07:59:03.378Z,82.70
2019-03-28T08:01:33.296Z,72.50
2019-03-28T08:04:03.242Z,78.20
2019-03-28T08:06:33.285Z,73.50
2019-03-28T08:09:04.390Z,76.77
2019-03-28T08:11:34.467Z,77.73
2019-03-28T08:14:04.637Z,77.97
2019-03-28T08:16:34.445Z,82.67
2019-03-28T08:19:06.504Z,77.07
2019-03-28T08:21:36.546Z,68.27
2019-03-28T08:24:19.126Z,75.37
2019-03-28T08:26:52.510Z,75.50
2019-03-28T08:29:28.605Z,72.93
2019-03-28T08:31:59.047Z,65.23
2019-03-28T08:34:31.834Z,71.90
2019-03-28T08:37:03.022Z,70.60
2019-03-28T08:39:33.973Z,63.63
2019-03-28T08:42:05.116Z,53.97
2019-03-28T08:44:35.026Z,54.20
2019-03-28T08:47:06.174Z,61.50
2019-03-28T08:49:36.454Z,60.10
2019-03-28T08:52:06.323Z,51.90
2019-03-28T08:54:36.222Z,58.10
2019-03-28T08:57:06.126Z,54.60
2019-03-28T08:59:35.978Z,54.53
2019-03-28T09:02:07.045Z,49.03
2019-03-28T09:04:37.005Z,47.07
2019-03-28T09:07:06.841Z,50.77
2019-03-28T09:09:36.699Z,44.43
2019-03-28T09:12:06.628Z,51.17
2019-03-28T09:14:36.446Z,52.03
2019-03-28T09:17:06.279Z,47.43
2019-03-28T09:19:38.861Z,50.40
2019-03-28T09:22:07.700Z,42.60
2019-03-28T09:24:37.646Z,41.30
2019-03-28T09:27:07.558Z,41.70
2019-03-28T09:29:37.378Z,39.43
2019-03-28T09:32:07.257Z,46.10
2019-03-28T09:34:37.262Z,39.70
2019-03-28T09:37:07.207Z,38.93
2019-03-28T09:39:37.107Z,35.80
2019-03-28T09:42:06.945Z,29.20
2019-03-28T09:44:36.912Z,30.37
2019-03-28T09:47:06.790Z,36.20
2019-03-28T09:49:36.748Z,35.33
2019-03-28T09:52:06.741Z,41.30
2019-03-28T09:54:36.622Z,43.70
2019-03-28T09:57:06.489Z,40.03
2019-03-28T09:59:36.481Z,35.97
2019-03-28T10:02:06.389Z,35.73
2019-03-28T10:04:36.212Z,32.37
2019-03-28T10:07:06.085Z,35.20
2019-03-28T10:09:36.133Z,35.33
2019-03-28T10:12:06.637Z,31.77
2019-03-28T10:14:38.979Z,31.43
2019-03-28T10:17:08.805Z,33.70
2019-03-28T10:19:38.741Z,30.37
2019-03-28T10:22:08.556Z,35.00
2019-03-28T10:24:40.438Z,30.30
2019-03-28T10:27:10.309Z,33.13
2019-03-28T10:29:40.306Z,30.83
2019-03-28T10:32:11.300Z,26.93
2019-03-28T10:34:41.218Z,24.43
2019-03-28T10:37:11.341Z,26.80
2019-03-28T10:39:41.212Z,25.17
2019-03-28T10:42:11.209Z,24.13
2019-03-28T10:44:41.058Z,21.57
2019-03-28T10:47:11.198Z,27.50
2019-03-28T10:49:41.541Z,24.53
2019-03-28T10:52:12.205Z,24.20
2019-03-28T10:54:42.061Z,23.80
2019-03-28T10:57:15.524Z,25.17
2019-03-28T10:59:46.002Z,29.30
2019-03-28T11:02:16.140Z,20.63
2019-03-28T11:04:45.938Z,23.93
2019-03-28T11:07:15.785Z,28.03
2019-03-28T11:09:45.660Z,28.03
2019-03-28T11:12:15.597Z,25.10
2019-03-28T11:14:46.420Z,27.73
2019-03-28T11:17:16.583Z,30.60
2019-03-28T11:19:46.496Z,27.27
2019-03-28T11:22:16.509Z,30.00
2019-03-28T11:24:51.974Z,26.03
2019-03-28T11:27:23.551Z,32.47
2019-03-28T11:29:53.565Z,37.00
2019-03-28T11:32:23.676Z,24.10
2019-03-28T11:34:53.634Z,24.10
2019-03-28T11:37:26.372Z,28.10
2019-03-28T11:39:55.098Z,34.13
2019-03-28T11:42:28.414Z,27.07
2019-03-28T11:44:58.399Z,23.00
2019-03-28T11:47:28.265Z,24.77
2019-03-28T11:49:58.135Z,35.80
2019-03-28T11:52:28.026Z,28.30
2019-03-28T11:54:57.889Z,29.50
2019-03-28T11:57:27.744Z,38.20
2019-03-28T11:59:58.070Z,58.67
2019-03-28T12:02:28.039Z,53.27
2019-03-28T12:04:57.867Z,48.17
2019-03-28T12:07:27.829Z,36.90
2019-03-28T12:09:57.726Z,40.53
2019-03-28T12:12:27.542Z,36.17
2019-03-28T12:15:10.085Z,21.67
2019-03-28T12:17:39.907Z,17.87
2019-03-28T12:20:11.626Z,14.60
2019-03-28T12:22:41.585Z,10.97
2019-03-28T12:25:14.743Z,11.93
2019-03-28T12:27:51.515Z,12.80
2019-03-28T12:30:22.650Z,9.40
2019-03-28T12:32:57.666Z,16.37
2019-03-28T12:35:27.493Z,9.63
2019-03-28T12:37:57.351Z,9.37
2019-03-28T12:40:31.382Z,9.17
2019-03-28T12:43:01.259Z,11.10
2019-03-28T12:45:34.164Z,11.97
2019-03-28T12:48:04.923Z,10.60
2019-03-28T12:50:34.762Z,16.43
2019-03-28T12:53:05.116Z,21.90
2019-03-28T12:55:35.001Z,29.17
2019-03-28T12:58:04.846Z,29.20
2019-03-28T13:00:40.122Z,27.70
2019-03-28T13:03:11.979Z,45.87
2019-03-28T13:05:50.303Z,34.80
2019-03-28T13:08:24.397Z,29.17
2019-03-28T13:10:56.266Z,23.47
2019-03-28T13:13:35.501Z,18.70
2019-03-28T13:16:05.591Z,16.37
2019-03-28T13:18:37.246Z,19.20
2019-03-28T13:21:13.385Z,28.83
2019-03-28T13:24:17.922Z,22.07
2019-03-28T13:26:48.412Z,19.60
2019-03-28T13:29:18.418Z,16.67
2019-03-28T13:31:48.218Z,16.33
2019-03-28T13:34:18.074Z,13.27
2019-03-28T13:36:47.890Z,12.67
2019-03-28T13:39:20.025Z,13.33
2019-03-28T13:41:49.889Z,13.47
2019-03-28T13:44:19.750Z,14.33
2019-03-28T13:46:49.568Z,13.50
2019-03-28T13:49:19.452Z,14.63
2019-03-28T13:51:49.335Z,15.60
2019-03-28T13:54:19.999Z,17.93
2019-03-28T13:56:50.856Z,15.67
2019-03-28T13:59:20.761Z,21.27
2019-03-28T14:01:50.759Z,14.80
2019-03-28T14:04:20.574Z,14.30
2019-03-28T14:06:50.409Z,14.53
2019-03-28T14:09:23.146Z,15.00
2019-03-28T14:11:51.818Z,14.57
2019-03-28T14:14:21.718Z,11.00
2019-03-28T14:16:53.186Z,12.53
2019-03-28T14:19:23.129Z,14.47
2019-03-28T14:21:52.929Z,11.97
2019-03-28T14:24:22.782Z,10.67
2019-03-28T14:26:52.607Z,15.40
2019-03-28T14:29:22.490Z,21.60
2019-03-28T14:31:52.290Z,20.13
2019-03-28T14:34:22.097Z,10.93
2019-03-28T14:36:51.958Z,10.00
2019-03-28T14:39:21.861Z,11.40
2019-03-28T14:41:51.658Z,11.93
2019-03-28T14:44:23.553Z,12.73
2019-03-28T14:46:53.369Z,14.13
2019-03-28T14:49:23.370Z,17.37
2019-03-28T14:51:53.348Z,15.27
2019-03-28T14:54:23.141Z,10.63
2019-03-28T14:56:53.271Z,12.93
2019-03-28T14:59:32.557Z,15.73
2019-03-28T15:01:55.472Z,15.70
2019-03-28T15:04:25.392Z,17.60
2019-03-28T15:06:55.197Z,21.03
2019-03-28T15:09:25.053Z,17.87
2019-03-28T15:11:54.840Z,15.30
2019-03-28T15:14:24.737Z,21.93
2019-03-28T15:16:54.558Z,36.73
2019-03-28T15:19:24.340Z,33.57
2019-03-28T15:21:54.206Z,35.60
2019-03-28T15:24:24.021Z,46.47
2019-03-28T15:26:53.965Z,23.57
2019-03-28T15:29:23.933Z,25.83
2019-03-28T15:31:53.858Z,20.07
2019-03-28T15:34:23.701Z,16.97
2019-03-28T15:36:53.707Z,19.40
2019-03-28T15:39:23.780Z,17.97
2019-03-28T15:41:53.586Z,16.40
2019-03-28T15:44:23.389Z,18.60
2019-03-28T15:46:53.299Z,32.53
2019-03-28T15:49:23.097Z,18.30
2019-03-28T15:51:52.885Z,17.70
2019-03-28T15:54:22.746Z,20.03
2019-03-28T15:56:52.546Z,20.17
2019-03-28T15:59:22.377Z,28.10
2019-03-28T16:01:52.182Z,29.50
2019-03-28T16:04:24.675Z,28.83
2019-03-28T16:06:53.562Z,24.87
2019-03-28T16:09:23.437Z,41.73
2019-03-28T16:12:02.471Z,48.53
2019-03-28T16:14:24.793Z,36.80
2019-03-28T16:16:55.180Z,38.10
2019-03-28T16:19:25.302Z,30.43
2019-03-28T16:21:55.197Z,36.33
2019-03-28T16:24:25.154Z,31.00
2019-03-28T16:26:55.042Z,31.20
2019-03-28T16:29:24.869Z,41.77
2019-03-28T16:31:54.684Z,36.17
2019-03-28T16:34:24.583Z,37.67
2019-03-28T16:36:54.423Z,44.77
2019-03-28T16:39:24.252Z,42.17
2019-03-28T16:41:54.091Z,34.20
2019-03-28T16:44:23.893Z,37.40
2019-03-28T16:46:53.710Z,39.53
2019-03-28T16:49:23.552Z,37.50
2019-03-28T16:51:53.529Z,41.63
2019-03-28T16:54:23.490Z,40.73
2019-03-28T16:56:53.730Z,37.30
2019-03-28T16:59:23.830Z,46.67
2019-03-28T17:01:53.657Z,48.30
2019-03-28T17:04:23.411Z,42.53
2019-03-28T17:06:53.589Z,35.60
2019-03-28T17:09:25.327Z,42.70
2019-03-28T17:11:55.134Z,43.93
2019-03-28T17:14:24.941Z,50.70
2019-03-28T17:16:54.912Z,74.17
2019-03-28T17:19:24.796Z,53.87
2019-03-28T17:21:54.614Z,52.63
2019-03-28T17:24:24.456Z,56.53
2019-03-28T17:26:54.470Z,44.37
2019-03-28T17:29:24.305Z,47.37
2019-03-28T17:31:54.109Z,43.20
2019-03-28T17:34:34.182Z,49.83
2019-03-28T17:36:55.490Z,51.90
2019-03-28T17:39:25.429Z,62.63
2019-03-28T17:41:55.280Z,77.67
2019-03-28T17:44:25.188Z,74.23
2019-03-28T17:46:55.077Z,85.63
2019-03-28T17:49:25.907Z,88.03
2019-03-28T17:51:55.904Z,96.30
2019-03-28T17:54:25.774Z,125.57
2019-03-28T17:56:55.621Z,139.63
2019-03-28T17:59:25.534Z,98.70
2019-03-28T18:01:55.397Z,95.50
2019-03-28T18:04:25.191Z,82.83
2019-03-28T18:06:55.157Z,96.93
2019-03-28T18:09:25.118Z,95.50
2019-03-28T18:11:54.991Z,113.57
2019-03-28T18:14:24.824Z,140.10
2019-03-28T18:16:54.659Z,118.43
2019-03-28T18:19:24.557Z,124.60
2019-03-28T18:22:03.258Z,109.57
2019-03-28T18:24:26.000Z,97.30
2019-03-28T18:26:55.873Z,90.63
2019-03-28T18:29:25.701Z,77.80
2019-03-28T18:31:55.542Z,77.83
2019-03-28T18:34:25.358Z,80.80
2019-03-28T18:36:55.375Z,85.10
2019-03-28T18:39:25.230Z,97.63
2019-03-28T18:41:56.635Z,93.53
2019-03-28T18:44:26.704Z,87.57
2019-03-28T18:46:56.626Z,84.70
2019-03-28T18:49:26.466Z,98.43
2019-03-28T18:51:56.391Z,97.03
2019-03-28T18:54:26.197Z,101.63
2019-03-28T18:56:56.013Z,93.23
2019-03-28T18:59:25.846Z,100.77
2019-03-28T19:01:55.660Z,94.67
2019-03-28T19:04:25.517Z,106.07
2019-03-28T19:06:57.748Z,119.70
2019-03-28T19:09:26.875Z,139.63
2019-03-28T19:11:56.786Z,152.80
2019-03-28T19:14:26.602Z,138.20
2019-03-28T19:16:56.498Z,159.30
2019-03-28T19:19:38.654Z,161.00
2019-03-28T19:21:58.000Z,155.33
2019-03-28T19:24:28.019Z,168.90
2019-03-28T19:26:57.857Z,170.00
2019-03-28T19:29:27.703Z,173.20
2019-03-28T19:31:57.506Z,173.10
2019-03-28T19:34:27.452Z,165.60
2019-03-28T19:36:57.786Z,183.37
2019-03-28T19:39:32.210Z,208.70
2019-03-28T19:42:04.388Z,202.67
2019-03-28T19:44:33.613Z,182.40
2019-03-28T19:47:03.465Z,189.30
2019-03-28T19:49:33.265Z,181.50
2019-03-28T19:52:03.156Z,164.50
2019-03-28T19:54:33.038Z,175.43
2019-03-28T19:57:02.909Z,187.30
2019-03-28T19:59:32.709Z,205.90
2019-03-28T20:02:02.515Z,208.60
2019-03-28T20:04:32.386Z,222.63
2019-03-28T20:07:02.216Z,214.70
2019-03-28T20:09:32.040Z,191.40
2019-03-28T20:12:03.507Z,191.77
2019-03-28T20:14:33.401Z,170.53
2019-03-28T20:17:03.239Z,180.63
2019-03-28T20:19:33.044Z,193.17
2019-03-28T20:22:02.945Z,182.13
2019-03-28T20:24:32.757Z,159.93
2019-03-28T20:27:02.606Z,132.57
2019-03-28T20:29:33.511Z,122.10
2019-03-28T20:32:03.682Z,108.23
2019-03-28T20:34:33.641Z,101.90
2019-03-28T20:37:03.582Z,132.47
2019-03-28T20:39:33.389Z,167.07
2019-03-28T20:42:03.190Z,172.30
2019-03-28T20:44:33.033Z,153.40
2019-03-28T20:47:02.876Z,146.30
2019-03-28T20:49:32.666Z,127.87
2019-03-28T20:52:02.526Z,120.73
2019-03-28T20:54:32.346Z,138.33
2019-03-28T20:57:02.140Z,126.43
2019-03-28T20:59:31.951Z,107.40
2019-03-28T21:02:01.772Z,107.23
2019-03-28T21:04:31.957Z,104.17
2019-03-28T21:07:01.989Z,112.13
2019-03-28T21:09:31.795Z,126.97
2019-03-28T21:12:01.753Z,122.43
2019-03-28T21:14:31.587Z,128.60
2019-03-28T21:17:01.499Z,128.00
2019-03-28T21:19:31.322Z,136.87
2019-03-28T21:22:01.139Z,172.63
2019-03-28T21:24:31.064Z,180.27
2019-03-28T21:27:00.921Z,216.13
2019-03-28T21:29:33.771Z,202.53
2019-03-28T21:32:02.313Z,190.27
2019-03-28T21:34:32.264Z,183.00
2019-03-28T21:37:02.106Z,170.30
2019-03-28T21:39:32.051Z,192.33
2019-03-28T21:42:01.918Z,175.40
2019-03-28T21:44:31.747Z,213.63
2019-03-28T21:47:01.589Z,200.10
2019-03-28T21:49:31.401Z,242.33
2019-03-28T21:52:01.223Z,222.80
2019-03-28T21:54:31.109Z,195.83
2019-03-28T21:57:00.913Z,196.53
2019-03-28T21:59:30.722Z,191.10
2019-03-28T22:02:00.549Z,207.57
2019-03-28T22:04:30.366Z,210.03
2019-03-28T22:07:00.173Z,217.73
2019-03-28T22:09:30.047Z,211.33
2019-03-28T22:12:00.822Z,228.60
2019-03-28T22:14:31.029Z,234.03
2019-03-28T22:17:00.874Z,245.87
2019-03-28T22:19:30.758Z,237.77
2019-03-28T22:22:01.955Z,259.57
2019-03-28T22:24:32.107Z,252.63
2019-03-28T22:27:01.967Z,252.27
2019-03-28T22:29:31.798Z,240.40
2019-03-28T22:32:01.605Z,279.13
2019-03-28T22:34:31.429Z,235.47
2019-03-28T22:37:03.650Z,261.83
2019-03-28T22:39:32.815Z,271.40
2019-03-28T22:42:02.836Z,263.10
2019-03-28T22:44:34.057Z,251.90
2019-03-28T22:47:04.038Z,246.83
2019-03-28T22:49:33.841Z,218.30
2019-03-28T22:52:03.681Z,253.13
2019-03-28T22:54:33.492Z,235.00
2019-03-28T22:57:03.296Z,265.33
2019-03-28T22:59:33.162Z,242.47
2019-03-28T23:02:03.344Z,256.33
2019-03-28T23:04:33.190Z,276.53
2019-03-28T23:07:10.809Z,284.50
2019-03-28T23:09:34.510Z,237.13
2019-03-28T23:12:04.442Z,261.97
2019-03-28T23:14:34.250Z,249.67
2019-03-28T23:17:04.041Z,256.40
2019-03-28T23:19:33.879Z,235.40
2019-03-28T23:22:03.769Z,252.13
2019-03-28T23:24:33.618Z,262.73
2019-03-28T23:27:03.414Z,265.40
2019-03-28T23:29:33.216Z,254.73
2019-03-28T23:32:03.068Z,343.23
2019-03-28T23:34:32.893Z,300.77
2019-03-28T23:37:02.698Z,365.93
2019-03-28T23:39:32.509Z,310.97
2019-03-28T23:42:02.318Z,315.07
2019-03-28T23:44:32.169Z,311.40
2019-03-28T23:47:01.997Z,303.90
2019-03-28T23:49:31.816Z,355.23
2019-03-28T23:52:01.667Z,336.60
2019-03-28T23:54:31.671Z,334.83
2019-03-28T23:57:01.477Z,370.90
2019-03-28T23:59:31.311Z,374.07
